sensor_id;sensor_type;location;lat;lon;timestamp;P1;durP1;ratioP1;P2;durP2;ratioP2
73359;SDS011;63092;43.582;19.528;2023-05-20T00:01:21;23.05;;;15.70;;
73359;SDS011;63092;43.582;19.528;2023-05-20T00:03:47;27.05;;;16.42;;
73359;SDS011;63092;43.582;19.528;2023-05-20T00:06:12;24.48;;;15.00;;
73359;SDS011;63092;43.582;19.528;2023-05-20T00:08:38;23.45;;;15.07;;
73359;SDS011;63092;43.582;19.528;2023-05-20T00:11:04;26.15;;;15.45;;
73359;SDS011;63092;43.582;19.528;2023-05-20T00:13:30;25.67;;;15.18;;
73359;SDS011;63092;43.582;19.528;2023-05-20T00:15:55;24.25;;;16.48;;
73359;SDS011;63092;43.582;19.528;2023-05-20T00:18:21;23.75;;;16.27;;
73359;SDS011;63092;43.582;19.528;2023-05-20T00:20:47;23.27;;;15.15;;
73359;SDS011;63092;43.582;19.528;2023-05-20T00:23:12;23.65;;;15.70;;
73359;SDS011;63092;43.582;19.528;2023-05-20T00:25:38;24.02;;;15.95;;
73359;SDS011;63092;43.582;19.528;2023-05-20T00:28:04;27.13;;;16.83;;
73359;SDS011;63092;43.582;19.528;2023-05-20T00:30:30;25.70;;;16.40;;
73359;SDS011;63092;43.582;19.528;2023-05-20T00:32:56;23.98;;;15.13;;
73359;SDS011;63092;43.582;19.528;2023-05-20T00:35:22;24.85;;;15.18;;
73359;SDS011;63092;43.582;19.528;2023-05-20T00:37:48;26.17;;;16.00;;
73359;SDS011;63092;43.582;19.528;2023-05-20T00:40:13;24.77;;;15.35;;
73359;SDS011;63092;43.582;19.528;2023-05-20T00:42:40;25.13;;;15.77;;
73359;SDS011;63092;43.582;19.528;2023-05-20T00:45:05;23.88;;;14.63;;
73359;SDS011;63092;43.582;19.528;2023-05-20T00:47:32;24.15;;;15.88;;
73359;SDS011;63092;43.582;19.528;2023-05-20T00:50:00;23.23;;;16.17;;
73359;SDS011;63092;43.582;19.528;2023-05-20T00:52:30;22.95;;;15.52;;
73359;SDS011;63092;43.582;19.528;2023-05-20T00:54:57;22.40;;;15.05;;
73359;SDS011;63092;43.582;19.528;2023-05-20T00:57:23;23.10;;;15.68;;
73359;SDS011;63092;43.582;19.528;2023-05-20T00:59:50;25.63;;;15.50;;
73359;SDS011;63092;43.582;19.528;2023-05-20T01:02:16;24.92;;;15.40;;
73359;SDS011;63092;43.582;19.528;2023-05-20T01:04:42;24.38;;;15.50;;
73359;SDS011;63092;43.582;19.528;2023-05-20T01:07:11;21.98;;;15.63;;
73359;SDS011;63092;43.582;19.528;2023-05-20T01:09:39;26.47;;;16.17;;
73359;SDS011;63092;43.582;19.528;2023-05-20T01:12:09;23.95;;;14.80;;
73359;SDS011;63092;43.582;19.528;2023-05-20T01:14:39;24.25;;;15.55;;
73359;SDS011;63092;43.582;19.528;2023-05-20T01:17:12;23.23;;;14.95;;
73359;SDS011;63092;43.582;19.528;2023-05-20T01:22:08;22.48;;;15.55;;
73359;SDS011;63092;43.582;19.528;2023-05-20T01:24:41;23.70;;;15.50;;
73359;SDS011;63092;43.582;19.528;2023-05-20T01:27:11;22.70;;;15.57;;
73359;SDS011;63092;43.582;19.528;2023-05-20T01:29:38;22.25;;;15.00;;
73359;SDS011;63092;43.582;19.528;2023-05-20T01:32:05;25.90;;;16.55;;
73359;SDS011;63092;43.582;19.528;2023-05-20T01:34:34;25.52;;;15.98;;
73359;SDS011;63092;43.582;19.528;2023-05-20T01:37:02;29.00;;;17.83;;
73359;SDS011;63092;43.582;19.528;2023-05-20T01:39:29;25.95;;;16.75;;
73359;SDS011;63092;43.582;19.528;2023-05-20T01:41:57;27.42;;;16.67;;
73359;SDS011;63092;43.582;19.528;2023-05-20T01:44:24;24.77;;;15.95;;
73359;SDS011;63092;43.582;19.528;2023-05-20T01:46:50;27.13;;;15.63;;
73359;SDS011;63092;43.582;19.528;2023-05-20T01:49:16;24.30;;;16.35;;
73359;SDS011;63092;43.582;19.528;2023-05-20T01:51:42;23.75;;;15.55;;
73359;SDS011;63092;43.582;19.528;2023-05-20T01:54:07;21.75;;;15.90;;
73359;SDS011;63092;43.582;19.528;2023-05-20T01:56:33;23.40;;;15.55;;
73359;SDS011;63092;43.582;19.528;2023-05-20T01:58:59;28.20;;;16.67;;
73359;SDS011;63092;43.582;19.528;2023-05-20T02:01:24;25.05;;;16.42;;
73359;SDS011;63092;43.582;19.528;2023-05-20T02:03:50;24.83;;;16.08;;
73359;SDS011;63092;43.582;19.528;2023-05-20T02:06:16;24.52;;;16.23;;
73359;SDS011;63092;43.582;19.528;2023-05-20T02:08:41;28.65;;;16.20;;
73359;SDS011;63092;43.582;19.528;2023-05-20T02:11:07;26.70;;;16.40;;
73359;SDS011;63092;43.582;19.528;2023-05-20T02:13:33;26.65;;;17.50;;
73359;SDS011;63092;43.582;19.528;2023-05-20T02:15:58;28.40;;;17.40;;
73359;SDS011;63092;43.582;19.528;2023-05-20T02:18:24;30.23;;;18.58;;
73359;SDS011;63092;43.582;19.528;2023-05-20T02:20:50;33.45;;;18.38;;
73359;SDS011;63092;43.582;19.528;2023-05-20T02:23:16;33.97;;;20.33;;
73359;SDS011;63092;43.582;19.528;2023-05-20T02:25:42;34.63;;;20.83;;
73359;SDS011;63092;43.582;19.528;2023-05-20T02:28:08;33.17;;;19.27;;
73359;SDS011;63092;43.582;19.528;2023-05-20T02:30:38;36.25;;;18.35;;
73359;SDS011;63092;43.582;19.528;2023-05-20T02:33:04;32.97;;;18.75;;
73359;SDS011;63092;43.582;19.528;2023-05-20T02:35:31;35.58;;;19.42;;
73359;SDS011;63092;43.582;19.528;2023-05-20T02:37:56;31.00;;;18.67;;
73359;SDS011;63092;43.582;19.528;2023-05-20T02:40:22;32.15;;;19.20;;
73359;SDS011;63092;43.582;19.528;2023-05-20T02:42:48;30.75;;;18.88;;
73359;SDS011;63092;43.582;19.528;2023-05-20T02:45:14;31.80;;;19.35;;
73359;SDS011;63092;43.582;19.528;2023-05-20T02:47:40;27.75;;;17.90;;
73359;SDS011;63092;43.582;19.528;2023-05-20T02:50:06;28.05;;;17.20;;
73359;SDS011;63092;43.582;19.528;2023-05-20T02:52:32;27.30;;;17.92;;
73359;SDS011;63092;43.582;19.528;2023-05-20T02:54:59;27.95;;;17.98;;
73359;SDS011;63092;43.582;19.528;2023-05-20T02:57:25;30.23;;;18.60;;
73359;SDS011;63092;43.582;19.528;2023-05-20T02:59:52;35.85;;;20.83;;
73359;SDS011;63092;43.582;19.528;2023-05-20T03:02:19;30.98;;;19.27;;
73359;SDS011;63092;43.582;19.528;2023-05-20T03:04:45;33.60;;;20.67;;
73359;SDS011;63092;43.582;19.528;2023-05-20T03:07:11;32.15;;;19.70;;
73359;SDS011;63092;43.582;19.528;2023-05-20T03:09:37;30.02;;;17.83;;
73359;SDS011;63092;43.582;19.528;2023-05-20T03:12:02;25.35;;;17.58;;
73359;SDS011;63092;43.582;19.528;2023-05-20T03:14:28;30.10;;;18.27;;
73359;SDS011;63092;43.582;19.528;2023-05-20T03:16:54;28.45;;;16.85;;
73359;SDS011;63092;43.582;19.528;2023-05-20T03:19:20;25.08;;;16.55;;
73359;SDS011;63092;43.582;19.528;2023-05-20T03:21:46;24.52;;;16.45;;
73359;SDS011;63092;43.582;19.528;2023-05-20T03:24:11;25.30;;;16.58;;
73359;SDS011;63092;43.582;19.528;2023-05-20T03:26:37;26.20;;;17.15;;
73359;SDS011;63092;43.582;19.528;2023-05-20T03:29:07;24.88;;;16.58;;
73359;SDS011;63092;43.582;19.528;2023-05-20T03:31:33;27.17;;;16.45;;
73359;SDS011;63092;43.582;19.528;2023-05-20T03:33:59;26.00;;;16.58;;
73359;SDS011;63092;43.582;19.528;2023-05-20T03:36:25;28.98;;;18.60;;
73359;SDS011;63092;43.582;19.528;2023-05-20T03:38:51;28.10;;;18.35;;
73359;SDS011;63092;43.582;19.528;2023-05-20T03:41:16;25.90;;;17.23;;
73359;SDS011;63092;43.582;19.528;2023-05-20T03:43:42;29.35;;;17.48;;
73359;SDS011;63092;43.582;19.528;2023-05-20T03:46:08;30.58;;;17.80;;
73359;SDS011;63092;43.582;19.528;2023-05-20T03:48:33;28.35;;;17.10;;
73359;SDS011;63092;43.582;19.528;2023-05-20T03:50:59;27.50;;;17.85;;
73359;SDS011;63092;43.582;19.528;2023-05-20T03:53:25;28.52;;;17.92;;
73359;SDS011;63092;43.582;19.528;2023-05-20T03:55:51;30.42;;;17.33;;
73359;SDS011;63092;43.582;19.528;2023-05-20T03:58:17;32.40;;;19.15;;
73359;SDS011;63092;43.582;19.528;2023-05-20T04:00:44;31.85;;;18.33;;
73359;SDS011;63092;43.582;19.528;2023-05-20T04:03:11;31.17;;;19.73;;
73359;SDS011;63092;43.582;19.528;2023-05-20T04:05:37;28.20;;;17.83;;
73359;SDS011;63092;43.582;19.528;2023-05-20T04:08:03;28.38;;;17.98;;
73359;SDS011;63092;43.582;19.528;2023-05-20T04:10:29;27.67;;;16.92;;
73359;SDS011;63092;43.582;19.528;2023-05-20T04:12:57;29.05;;;17.35;;
73359;SDS011;63092;43.582;19.528;2023-05-20T04:15:23;26.15;;;16.33;;
73359;SDS011;63092;43.582;19.528;2023-05-20T04:17:49;26.90;;;16.88;;
73359;SDS011;63092;43.582;19.528;2023-05-20T04:20:16;27.45;;;16.48;;
73359;SDS011;63092;43.582;19.528;2023-05-20T04:22:43;26.02;;;16.27;;
73359;SDS011;63092;43.582;19.528;2023-05-20T04:25:09;29.60;;;17.88;;
73359;SDS011;63092;43.582;19.528;2023-05-20T04:27:36;25.30;;;16.50;;
73359;SDS011;63092;43.582;19.528;2023-05-20T04:30:02;25.58;;;16.58;;
73359;SDS011;63092;43.582;19.528;2023-05-20T04:32:28;23.83;;;17.08;;
73359;SDS011;63092;43.582;19.528;2023-05-20T04:34:54;25.33;;;17.50;;
73359;SDS011;63092;43.582;19.528;2023-05-20T04:37:21;32.88;;;19.98;;
73359;SDS011;63092;43.582;19.528;2023-05-20T04:39:47;27.25;;;16.60;;
73359;SDS011;63092;43.582;19.528;2023-05-20T04:42:14;24.35;;;15.90;;
73359;SDS011;63092;43.582;19.528;2023-05-20T04:44:42;26.03;;;17.23;;
73359;SDS011;63092;43.582;19.528;2023-05-20T04:47:10;25.15;;;16.50;;
73359;SDS011;63092;43.582;19.528;2023-05-20T04:49:36;26.02;;;16.65;;
73359;SDS011;63092;43.582;19.528;2023-05-20T04:52:02;24.98;;;15.80;;
73359;SDS011;63092;43.582;19.528;2023-05-20T04:54:29;19.60;;;13.73;;
73359;SDS011;63092;43.582;19.528;2023-05-20T04:56:56;21.27;;;14.68;;
73359;SDS011;63092;43.582;19.528;2023-05-20T04:59:22;21.92;;;14.15;;
73359;SDS011;63092;43.582;19.528;2023-05-20T05:01:48;22.38;;;14.95;;
73359;SDS011;63092;43.582;19.528;2023-05-20T05:04:14;21.38;;;15.15;;
73359;SDS011;63092;43.582;19.528;2023-05-20T05:06:40;22.02;;;15.18;;
73359;SDS011;63092;43.582;19.528;2023-05-20T05:09:05;22.40;;;15.20;;
73359;SDS011;63092;43.582;19.528;2023-05-20T05:11:32;21.08;;;14.63;;
73359;SDS011;63092;43.582;19.528;2023-05-20T05:13:58;23.52;;;14.95;;
73359;SDS011;63092;43.582;19.528;2023-05-20T05:16:23;22.90;;;16.33;;
73359;SDS011;63092;43.582;19.528;2023-05-20T05:18:49;20.58;;;14.25;;
73359;SDS011;63092;43.582;19.528;2023-05-20T05:21:15;22.98;;;16.27;;
73359;SDS011;63092;43.582;19.528;2023-05-20T05:23:41;24.73;;;17.05;;
73359;SDS011;63092;43.582;19.528;2023-05-20T05:26:07;19.90;;;14.15;;
73359;SDS011;63092;43.582;19.528;2023-05-20T05:28:32;20.38;;;14.52;;
73359;SDS011;63092;43.582;19.528;2023-05-20T05:30:58;21.75;;;15.15;;
73359;SDS011;63092;43.582;19.528;2023-05-20T05:33:26;21.60;;;14.63;;
73359;SDS011;63092;43.582;19.528;2023-05-20T05:35:51;25.40;;;16.73;;
73359;SDS011;63092;43.582;19.528;2023-05-20T05:38:17;20.33;;;14.43;;
73359;SDS011;63092;43.582;19.528;2023-05-20T05:40:43;19.77;;;14.68;;
73359;SDS011;63092;43.582;19.528;2023-05-20T05:43:09;18.92;;;14.73;;
73359;SDS011;63092;43.582;19.528;2023-05-20T05:45:35;21.70;;;14.25;;
73359;SDS011;63092;43.582;19.528;2023-05-20T05:48:00;19.73;;;13.30;;
73359;SDS011;63092;43.582;19.528;2023-05-20T05:50:26;19.35;;;14.38;;
73359;SDS011;63092;43.582;19.528;2023-05-20T05:52:52;21.23;;;14.52;;
73359;SDS011;63092;43.582;19.528;2023-05-20T05:55:18;21.70;;;14.95;;
73359;SDS011;63092;43.582;19.528;2023-05-20T05:57:43;22.90;;;14.52;;
73359;SDS011;63092;43.582;19.528;2023-05-20T06:00:09;20.02;;;14.32;;
73359;SDS011;63092;43.582;19.528;2023-05-20T06:02:36;22.30;;;14.30;;
73359;SDS011;63092;43.582;19.528;2023-05-20T06:05:02;21.60;;;14.68;;
73359;SDS011;63092;43.582;19.528;2023-05-20T06:07:28;24.20;;;15.98;;
73359;SDS011;63092;43.582;19.528;2023-05-20T06:09:54;23.25;;;15.77;;
73359;SDS011;63092;43.582;19.528;2023-05-20T06:12:19;21.85;;;14.98;;
73359;SDS011;63092;43.582;19.528;2023-05-20T06:14:46;22.88;;;15.48;;
73359;SDS011;63092;43.582;19.528;2023-05-20T06:17:11;20.17;;;14.75;;
73359;SDS011;63092;43.582;19.528;2023-05-20T06:19:37;22.25;;;15.30;;
73359;SDS011;63092;43.582;19.528;2023-05-20T06:22:03;21.30;;;14.70;;
73359;SDS011;63092;43.582;19.528;2023-05-20T06:24:29;21.80;;;14.52;;
73359;SDS011;63092;43.582;19.528;2023-05-20T06:26:54;19.42;;;13.88;;
73359;SDS011;63092;43.582;19.528;2023-05-20T06:29:20;22.13;;;14.85;;
73359;SDS011;63092;43.582;19.528;2023-05-20T06:31:47;17.75;;;13.82;;
73359;SDS011;63092;43.582;19.528;2023-05-20T06:34:12;20.60;;;14.45;;
73359;SDS011;63092;43.582;19.528;2023-05-20T06:36:38;20.50;;;14.80;;
73359;SDS011;63092;43.582;19.528;2023-05-20T06:39:04;17.98;;;13.18;;
73359;SDS011;63092;43.582;19.528;2023-05-20T06:41:35;20.83;;;14.88;;
73359;SDS011;63092;43.582;19.528;2023-05-20T06:44:01;21.05;;;14.73;;
73359;SDS011;63092;43.582;19.528;2023-05-20T06:46:26;22.17;;;14.93;;
73359;SDS011;63092;43.582;19.528;2023-05-20T06:48:52;21.05;;;15.07;;
73359;SDS011;63092;43.582;19.528;2023-05-20T06:51:18;21.83;;;15.32;;
73359;SDS011;63092;43.582;19.528;2023-05-20T06:53:43;21.88;;;14.95;;
73359;SDS011;63092;43.582;19.528;2023-05-20T06:56:09;21.20;;;14.45;;
73359;SDS011;63092;43.582;19.528;2023-05-20T06:58:35;23.10;;;15.75;;
73359;SDS011;63092;43.582;19.528;2023-05-20T07:01:00;25.08;;;18.02;;
73359;SDS011;63092;43.582;19.528;2023-05-20T07:03:26;23.48;;;16.42;;
73359;SDS011;63092;43.582;19.528;2023-05-20T07:05:52;23.45;;;17.20;;
73359;SDS011;63092;43.582;19.528;2023-05-20T07:08:17;23.02;;;16.05;;
73359;SDS011;63092;43.582;19.528;2023-05-20T07:10:43;20.92;;;14.90;;
73359;SDS011;63092;43.582;19.528;2023-05-20T07:13:10;23.73;;;16.58;;
73359;SDS011;63092;43.582;19.528;2023-05-20T07:15:36;23.67;;;17.42;;
73359;SDS011;63092;43.582;19.528;2023-05-20T07:18:02;24.23;;;15.77;;
73359;SDS011;63092;43.582;19.528;2023-05-20T07:20:28;22.85;;;15.20;;
73359;SDS011;63092;43.582;19.528;2023-05-20T07:22:53;24.27;;;17.58;;
73359;SDS011;63092;43.582;19.528;2023-05-20T07:25:19;25.58;;;18.58;;
73359;SDS011;63092;43.582;19.528;2023-05-20T07:27:46;27.92;;;21.67;;
73359;SDS011;63092;43.582;19.528;2023-05-20T07:30:11;26.27;;;18.02;;
73359;SDS011;63092;43.582;19.528;2023-05-20T07:32:37;21.50;;;15.57;;
73359;SDS011;63092;43.582;19.528;2023-05-20T07:35:03;25.45;;;15.85;;
73359;SDS011;63092;43.582;19.528;2023-05-20T07:37:29;24.42;;;15.30;;
73359;SDS011;63092;43.582;19.528;2023-05-20T07:39:55;20.60;;;14.68;;
73359;SDS011;63092;43.582;19.528;2023-05-20T07:42:21;22.67;;;16.13;;
73359;SDS011;63092;43.582;19.528;2023-05-20T07:44:46;21.40;;;14.55;;
73359;SDS011;63092;43.582;19.528;2023-05-20T07:47:12;20.70;;;14.27;;
73359;SDS011;63092;43.582;19.528;2023-05-20T07:49:38;22.02;;;15.35;;
73359;SDS011;63092;43.582;19.528;2023-05-20T07:52:04;20.98;;;14.35;;
73359;SDS011;63092;43.582;19.528;2023-05-20T07:54:30;23.58;;;14.27;;
73359;SDS011;63092;43.582;19.528;2023-05-20T07:56:56;21.38;;;14.82;;
73359;SDS011;63092;43.582;19.528;2023-05-20T07:59:22;19.08;;;14.38;;
73359;SDS011;63092;43.582;19.528;2023-05-20T08:01:48;21.42;;;15.07;;
73359;SDS011;63092;43.582;19.528;2023-05-20T08:04:14;19.85;;;14.25;;
73359;SDS011;63092;43.582;19.528;2023-05-20T08:06:40;26.15;;;16.98;;
73359;SDS011;63092;43.582;19.528;2023-05-20T08:09:07;18.85;;;14.35;;
73359;SDS011;63092;43.582;19.528;2023-05-20T08:11:32;24.67;;;17.42;;
73359;SDS011;63092;43.582;19.528;2023-05-20T08:13:58;27.73;;;15.82;;
73359;SDS011;63092;43.582;19.528;2023-05-20T08:16:24;20.45;;;15.27;;
73359;SDS011;63092;43.582;19.528;2023-05-20T08:18:50;21.50;;;14.90;;
73359;SDS011;63092;43.582;19.528;2023-05-20T08:21:16;17.77;;;12.45;;
73359;SDS011;63092;43.582;19.528;2023-05-20T08:23:41;18.30;;;12.88;;
73359;SDS011;63092;43.582;19.528;2023-05-20T08:26:07;19.52;;;11.48;;
73359;SDS011;63092;43.582;19.528;2023-05-20T08:28:33;16.77;;;11.68;;
73359;SDS011;63092;43.582;19.528;2023-05-20T08:31:01;16.83;;;11.05;;
73359;SDS011;63092;43.582;19.528;2023-05-20T08:33:27;15.20;;;10.45;;
73359;SDS011;63092;43.582;19.528;2023-05-20T08:35:53;16.45;;;9.95;;
73359;SDS011;63092;43.582;19.528;2023-05-20T08:38:19;15.02;;;10.02;;
73359;SDS011;63092;43.582;19.528;2023-05-20T08:40:45;16.30;;;10.25;;
73359;SDS011;63092;43.582;19.528;2023-05-20T08:43:15;13.55;;;10.25;;
73359;SDS011;63092;43.582;19.528;2023-05-20T08:45:41;13.68;;;9.45;;
73359;SDS011;63092;43.582;19.528;2023-05-20T08:48:07;15.90;;;11.32;;
73359;SDS011;63092;43.582;19.528;2023-05-20T08:50:32;13.32;;;9.93;;
73359;SDS011;63092;43.582;19.528;2023-05-20T08:52:58;13.57;;;9.65;;
73359;SDS011;63092;43.582;19.528;2023-05-20T08:57:51;12.93;;;9.20;;
73359;SDS011;63092;43.582;19.528;2023-05-20T09:00:19;18.17;;;10.15;;
73359;SDS011;63092;43.582;19.528;2023-05-20T09:02:47;13.27;;;9.48;;
73359;SDS011;63092;43.582;19.528;2023-05-20T09:05:13;17.83;;;11.25;;
73359;SDS011;63092;43.582;19.528;2023-05-20T09:07:39;13.07;;;9.00;;
73359;SDS011;63092;43.582;19.528;2023-05-20T09:10:07;13.88;;;9.63;;
73359;SDS011;63092;43.582;19.528;2023-05-20T09:12:33;11.93;;;9.00;;
73359;SDS011;63092;43.582;19.528;2023-05-20T09:15:00;11.85;;;8.90;;
73359;SDS011;63092;43.582;19.528;2023-05-20T09:17:26;14.70;;;9.60;;
73359;SDS011;63092;43.582;19.528;2023-05-20T09:19:52;13.68;;;8.35;;
73359;SDS011;63092;43.582;19.528;2023-05-20T09:22:25;12.15;;;8.70;;
73359;SDS011;63092;43.582;19.528;2023-05-20T09:24:53;13.20;;;8.48;;
73359;SDS011;63092;43.582;19.528;2023-05-20T09:27:19;12.20;;;7.55;;
73359;SDS011;63092;43.582;19.528;2023-05-20T09:29:49;9.68;;;7.50;;
73359;SDS011;63092;43.582;19.528;2023-05-20T09:32:15;13.05;;;8.98;;
73359;SDS011;63092;43.582;19.528;2023-05-20T09:34:44;11.00;;;7.70;;
73359;SDS011;63092;43.582;19.528;2023-05-20T09:37:11;12.27;;;8.23;;
73359;SDS011;63092;43.582;19.528;2023-05-20T09:39:59;13.25;;;7.65;;
73359;SDS011;63092;43.582;19.528;2023-05-20T09:42:34;10.25;;;7.22;;
73359;SDS011;63092;43.582;19.528;2023-05-20T09:45:06;9.35;;;7.22;;
73359;SDS011;63092;43.582;19.528;2023-05-20T09:47:36;11.02;;;7.28;;
73359;SDS011;63092;43.582;19.528;2023-05-20T09:50:04;10.30;;;7.97;;
73359;SDS011;63092;43.582;19.528;2023-05-20T09:52:32;9.77;;;7.43;;
73359;SDS011;63092;43.582;19.528;2023-05-20T09:55:03;11.20;;;7.15;;
73359;SDS011;63092;43.582;19.528;2023-05-20T09:57:33;10.85;;;7.22;;
73359;SDS011;63092;43.582;19.528;2023-05-20T10:00:00;9.38;;;6.82;;
73359;SDS011;63092;43.582;19.528;2023-05-20T10:02:29;10.88;;;7.38;;
73359;SDS011;63092;43.582;19.528;2023-05-20T10:04:55;10.55;;;6.85;;
73359;SDS011;63092;43.582;19.528;2023-05-20T10:20:20;10.70;;;6.53;;
73359;SDS011;63092;43.582;19.528;2023-05-20T10:22:53;10.77;;;6.45;;
73359;SDS011;63092;43.582;19.528;2023-05-20T10:25:25;8.77;;;6.63;;
73359;SDS011;63092;43.582;19.528;2023-05-20T10:28:02;8.55;;;6.40;;
73359;SDS011;63092;43.582;19.528;2023-05-20T10:30:32;10.18;;;6.22;;
73359;SDS011;63092;43.582;19.528;2023-05-20T10:33:02;8.70;;;6.10;;
73359;SDS011;63092;43.582;19.528;2023-05-20T10:35:29;8.93;;;6.43;;
73359;SDS011;63092;43.582;19.528;2023-05-20T10:38:08;12.05;;;7.20;;
73359;SDS011;63092;43.582;19.528;2023-05-20T10:40:35;11.55;;;6.80;;
73359;SDS011;63092;43.582;19.528;2023-05-20T10:43:10;11.68;;;6.68;;
73359;SDS011;63092;43.582;19.528;2023-05-20T10:45:47;11.63;;;6.63;;
73359;SDS011;63092;43.582;19.528;2023-05-20T10:48:27;9.55;;;6.82;;
73359;SDS011;63092;43.582;19.528;2023-05-20T10:50:59;12.18;;;6.78;;
73359;SDS011;63092;43.582;19.528;2023-05-20T10:53:28;10.98;;;6.82;;
73359;SDS011;63092;43.582;19.528;2023-05-20T10:56:02;11.60;;;8.35;;
73359;SDS011;63092;43.582;19.528;2023-05-20T10:58:34;9.70;;;7.07;;
73359;SDS011;63092;43.582;19.528;2023-05-20T11:01:02;10.60;;;7.30;;
73359;SDS011;63092;43.582;19.528;2023-05-20T11:03:28;11.63;;;8.52;;
73359;SDS011;63092;43.582;19.528;2023-05-20T11:05:54;12.20;;;7.20;;
73359;SDS011;63092;43.582;19.528;2023-05-20T11:08:19;15.80;;;8.80;;
73359;SDS011;63092;43.582;19.528;2023-05-20T11:10:45;17.20;;;8.05;;
73359;SDS011;63092;43.582;19.528;2023-05-20T11:13:11;10.85;;;7.18;;
73359;SDS011;63092;43.582;19.528;2023-05-20T11:15:39;10.98;;;7.03;;
73359;SDS011;63092;43.582;19.528;2023-05-20T11:18:05;11.27;;;7.75;;
73359;SDS011;63092;43.582;19.528;2023-05-20T11:20:31;11.10;;;6.82;;
73359;SDS011;63092;43.582;19.528;2023-05-20T11:22:59;9.55;;;7.22;;
73359;SDS011;63092;43.582;19.528;2023-05-20T11:25:26;12.35;;;8.38;;
73359;SDS011;63092;43.582;19.528;2023-05-20T11:27:52;10.15;;;6.88;;
73359;SDS011;63092;43.582;19.528;2023-05-20T11:30:18;10.63;;;6.22;;
73359;SDS011;63092;43.582;19.528;2023-05-20T11:33:00;9.98;;;7.07;;
73359;SDS011;63092;43.582;19.528;2023-05-20T11:35:28;10.98;;;6.72;;
73359;SDS011;63092;43.582;19.528;2023-05-20T11:37:56;9.52;;;6.55;;
73359;SDS011;63092;43.582;19.528;2023-05-20T11:40:26;8.02;;;6.25;;
73359;SDS011;63092;43.582;19.528;2023-05-20T11:42:52;9.88;;;6.30;;
73359;SDS011;63092;43.582;19.528;2023-05-20T11:45:22;10.02;;;6.10;;
73359;SDS011;63092;43.582;19.528;2023-05-20T11:48:01;8.55;;;6.65;;
73359;SDS011;63092;43.582;19.528;2023-05-20T11:50:32;10.70;;;6.78;;
73359;SDS011;63092;43.582;19.528;2023-05-20T11:53:01;8.88;;;6.40;;
73359;SDS011;63092;43.582;19.528;2023-05-20T11:55:27;10.05;;;6.07;;
73359;SDS011;63092;43.582;19.528;2023-05-20T11:57:56;8.80;;;6.33;;
73359;SDS011;63092;43.582;19.528;2023-05-20T12:00:23;9.85;;;6.90;;
73359;SDS011;63092;43.582;19.528;2023-05-20T12:02:49;10.82;;;6.45;;
73359;SDS011;63092;43.582;19.528;2023-05-20T12:05:16;9.57;;;7.10;;
73359;SDS011;63092;43.582;19.528;2023-05-20T12:07:42;10.75;;;6.68;;
73359;SDS011;63092;43.582;19.528;2023-05-20T12:10:08;10.02;;;6.78;;
73359;SDS011;63092;43.582;19.528;2023-05-20T12:12:35;9.40;;;6.30;;
73359;SDS011;63092;43.582;19.528;2023-05-20T12:15:04;9.05;;;6.72;;
73359;SDS011;63092;43.582;19.528;2023-05-20T12:17:46;10.23;;;7.07;;
73359;SDS011;63092;43.582;19.528;2023-05-20T12:20:16;11.38;;;6.15;;
73359;SDS011;63092;43.582;19.528;2023-05-20T12:22:44;10.93;;;6.38;;
73359;SDS011;63092;43.582;19.528;2023-05-20T12:25:11;9.98;;;6.53;;
73359;SDS011;63092;43.582;19.528;2023-05-20T12:27:38;10.75;;;5.88;;
73359;SDS011;63092;43.582;19.528;2023-05-20T12:30:05;9.32;;;6.18;;
73359;SDS011;63092;43.582;19.528;2023-05-20T12:32:37;10.63;;;6.43;;
73359;SDS011;63092;43.582;19.528;2023-05-20T12:35:03;10.65;;;5.95;;
73359;SDS011;63092;43.582;19.528;2023-05-20T12:37:29;8.48;;;5.57;;
73359;SDS011;63092;43.582;19.528;2023-05-20T12:39:55;10.35;;;6.43;;
73359;SDS011;63092;43.582;19.528;2023-05-20T12:42:21;9.35;;;7.18;;
73359;SDS011;63092;43.582;19.528;2023-05-20T12:44:46;9.93;;;6.43;;
73359;SDS011;63092;43.582;19.528;2023-05-20T12:47:12;10.02;;;6.00;;
73359;SDS011;63092;43.582;19.528;2023-05-20T12:49:38;11.27;;;5.90;;
73359;SDS011;63092;43.582;19.528;2023-05-20T12:52:03;8.70;;;5.38;;
73359;SDS011;63092;43.582;19.528;2023-05-20T12:54:29;7.90;;;5.75;;
73359;SDS011;63092;43.582;19.528;2023-05-20T12:56:55;8.13;;;5.40;;
73359;SDS011;63092;43.582;19.528;2023-05-20T12:59:22;7.57;;;5.78;;
73359;SDS011;63092;43.582;19.528;2023-05-20T13:01:47;9.93;;;6.95;;
73359;SDS011;63092;43.582;19.528;2023-05-20T13:04:13;8.52;;;5.50;;
73359;SDS011;63092;43.582;19.528;2023-05-20T13:06:39;12.98;;;9.70;;
73359;SDS011;63092;43.582;19.528;2023-05-20T13:09:06;16.75;;;10.90;;
73359;SDS011;63092;43.582;19.528;2023-05-20T13:11:31;9.30;;;6.43;;
73359;SDS011;63092;43.582;19.528;2023-05-20T13:13:57;9.23;;;6.10;;
73359;SDS011;63092;43.582;19.528;2023-05-20T13:16:23;9.65;;;6.18;;
73359;SDS011;63092;43.582;19.528;2023-05-20T13:18:50;13.95;;;6.10;;
73359;SDS011;63092;43.582;19.528;2023-05-20T13:21:15;8.25;;;5.68;;
73359;SDS011;63092;43.582;19.528;2023-05-20T13:23:41;8.23;;;5.53;;
73359;SDS011;63092;43.582;19.528;2023-05-20T13:26:07;9.38;;;6.40;;
73359;SDS011;63092;43.582;19.528;2023-05-20T13:28:33;10.27;;;5.80;;
73359;SDS011;63092;43.582;19.528;2023-05-20T13:31:01;10.57;;;6.20;;
73359;SDS011;63092;43.582;19.528;2023-05-20T13:33:30;9.50;;;5.28;;
73359;SDS011;63092;43.582;19.528;2023-05-20T13:35:56;8.52;;;5.15;;
73359;SDS011;63092;43.582;19.528;2023-05-20T13:38:22;6.80;;;4.88;;
73359;SDS011;63092;43.582;19.528;2023-05-20T13:40:48;7.60;;;5.70;;
73359;SDS011;63092;43.582;19.528;2023-05-20T13:43:14;10.52;;;5.43;;
73359;SDS011;63092;43.582;19.528;2023-05-20T13:45:41;9.40;;;5.05;;
73359;SDS011;63092;43.582;19.528;2023-05-20T13:48:06;8.02;;;5.25;;
73359;SDS011;63092;43.582;19.528;2023-05-20T13:50:32;10.77;;;5.63;;
73359;SDS011;63092;43.582;19.528;2023-05-20T13:52:58;10.93;;;5.00;;
73359;SDS011;63092;43.582;19.528;2023-05-20T13:55:24;9.82;;;5.43;;
73359;SDS011;63092;43.582;19.528;2023-05-20T13:57:50;11.60;;;6.00;;
73359;SDS011;63092;43.582;19.528;2023-05-20T14:00:18;8.40;;;4.80;;
73359;SDS011;63092;43.582;19.528;2023-05-20T14:02:44;10.63;;;5.53;;
73359;SDS011;63092;43.582;19.528;2023-05-20T14:05:10;7.20;;;4.97;;
73359;SDS011;63092;43.582;19.528;2023-05-20T14:07:37;8.57;;;5.20;;
73359;SDS011;63092;43.582;19.528;2023-05-20T14:10:03;7.40;;;5.05;;
73359;SDS011;63092;43.582;19.528;2023-05-20T14:12:30;8.40;;;5.00;;
73359;SDS011;63092;43.582;19.528;2023-05-20T14:14:56;9.50;;;4.95;;
73359;SDS011;63092;43.582;19.528;2023-05-20T14:17:21;6.82;;;4.88;;
73359;SDS011;63092;43.582;19.528;2023-05-20T14:19:47;7.38;;;4.30;;
73359;SDS011;63092;43.582;19.528;2023-05-20T14:22:13;9.00;;;5.07;;
73359;SDS011;63092;43.582;19.528;2023-05-20T14:24:39;8.95;;;5.97;;
73359;SDS011;63092;43.582;19.528;2023-05-20T14:27:05;8.63;;;4.78;;
73359;SDS011;63092;43.582;19.528;2023-05-20T14:29:31;8.55;;;4.80;;
73359;SDS011;63092;43.582;19.528;2023-05-20T14:31:57;8.80;;;5.10;;